Jago, Mississippi
Current Conditions -  °F | °C
As of 10:54 AM on Friday 19 Dec 2014 (Local Time) from KMEM Reporting Station
Overcast Overcast  
Wind Chill: 39°   Ceiling: 3500
Heat Index: 43°   Visibility: 10mi
Dew Point: 34°   Wind: 6mph
Humidity: 71%   Direction: 30°NNE
Pressure: 30.27"   Gusts: NA
Location:  34.9498°N, 90.0305°W
Report Text: KMEM 191654Z 03005KT 10SM OVC035 06/01 A3027 RMK AO2 SLP251 T00610011 $
Loading
Personal Weather Stations






























Interactive Weather Map New forecast layout! Learn more

10-Day Weather Forecast

Advertisements
Track Severe Weather on mobile